createdAt,value
2023-07-19T00:01:49.086Z,22.95
2023-07-19T00:04:33.414Z,22.96
2023-07-19T00:07:02.088Z,22.95
2023-07-19T00:09:55.286Z,23.01
2023-07-19T00:12:23.753Z,23.08
2023-07-19T00:14:51.675Z,23.12
2023-07-19T00:17:20.160Z,23.16
2023-07-19T00:19:48.529Z,23.25
2023-07-19T00:22:16.472Z,23.28
2023-07-19T00:24:44.494Z,23.33
2023-07-19T00:27:12.402Z,23.37
2023-07-19T00:29:40.652Z,23.28
2023-07-19T00:32:09.191Z,23.28
2023-07-19T00:34:37.639Z,23.35
2023-07-19T00:37:06.292Z,23.31
2023-07-19T00:39:34.568Z,23.23
2023-07-19T00:42:02.882Z,23.19
2023-07-19T00:44:31.515Z,23.10
2023-07-19T00:47:00.914Z,23.05
2023-07-19T00:49:29.241Z,22.85
2023-07-19T00:51:58.986Z,22.79
2023-07-19T00:54:28.478Z,22.68
2023-07-19T00:56:56.942Z,22.47
2023-07-19T00:59:25.069Z,22.47
2023-07-19T01:01:53.407Z,22.38
2023-07-19T01:04:21.710Z,22.25
2023-07-19T01:06:50.233Z,22.22
2023-07-19T01:09:18.565Z,22.14
2023-07-19T01:11:47.061Z,22.04
2023-07-19T01:14:16.237Z,22.07
2023-07-19T01:17:59.097Z,21.95
2023-07-19T01:20:27.530Z,21.96
2023-07-19T01:22:59.230Z,21.94
2023-07-19T01:25:28.736Z,21.89
2023-07-19T01:27:56.764Z,21.89
2023-07-19T01:30:26.140Z,21.84
2023-07-19T01:32:54.854Z,21.76
2023-07-19T01:35:24.827Z,21.70
2023-07-19T01:37:56.306Z,21.64
2023-07-19T01:40:24.707Z,21.63
2023-07-19T01:42:53.273Z,21.59
2023-07-19T01:45:21.558Z,21.57
2023-07-19T01:47:49.961Z,21.57
2023-07-19T01:50:18.057Z,21.56
2023-07-19T01:52:46.302Z,21.54
2023-07-19T01:55:14.710Z,21.50
2023-07-19T01:57:43.266Z,21.55
2023-07-19T02:00:12.173Z,21.60
2023-07-19T02:02:40.426Z,21.62
2023-07-19T02:05:09.112Z,21.68
2023-07-19T02:07:38.693Z,21.68
2023-07-19T02:10:07.435Z,21.75
2023-07-19T02:12:35.661Z,21.86
2023-07-19T02:15:04.000Z,21.91
2023-07-19T02:17:32.394Z,22.04
2023-07-19T02:20:00.547Z,22.78
2023-07-19T02:22:28.738Z,23.90
2023-07-19T02:24:58.676Z,25.04
2023-07-19T02:27:27.449Z,25.82
2023-07-19T02:29:56.413Z,26.54
2023-07-19T02:32:26.135Z,27.44
2023-07-19T02:34:54.595Z,28.01
2023-07-19T02:37:23.068Z,28.83
2023-07-19T02:39:52.041Z,29.79
2023-07-19T02:42:19.888Z,30.38
2023-07-19T02:44:48.162Z,31.41
2023-07-19T02:47:16.550Z,32.40
2023-07-19T02:49:45.406Z,32.81
2023-07-19T02:52:14.378Z,33.32
2023-07-19T02:54:42.996Z,33.08
2023-07-19T02:57:11.727Z,31.86
2023-07-19T02:59:43.412Z,30.89
2023-07-19T03:02:12.374Z,30.24
2023-07-19T03:04:40.555Z,29.33
2023-07-19T03:07:08.814Z,28.23
2023-07-19T03:09:36.918Z,28.04
2023-07-19T03:12:05.534Z,27.17
2023-07-19T03:14:33.796Z,27.60
2023-07-19T03:17:01.879Z,28.03
2023-07-19T03:19:30.095Z,29.40
2023-07-19T03:21:58.309Z,31.29
2023-07-19T03:24:26.433Z,32.57
2023-07-19T03:26:55.046Z,31.93
2023-07-19T03:29:23.084Z,31.26
2023-07-19T03:31:51.276Z,31.62
2023-07-19T03:34:19.509Z,32.56
2023-07-19T03:36:47.771Z,32.47
2023-07-19T03:39:17.139Z,34.04
2023-07-19T03:41:45.353Z,35.56
2023-07-19T03:44:13.383Z,36.81
2023-07-19T03:46:42.897Z,37.69
2023-07-19T03:49:12.677Z,38.09
2023-07-19T03:51:41.034Z,37.94
2023-07-19T03:54:09.542Z,37.08
2023-07-19T03:56:37.882Z,37.36
2023-07-19T03:59:05.981Z,38.38
2023-07-19T04:01:35.146Z,38.74
2023-07-19T04:04:03.136Z,38.18
2023-07-19T04:06:32.276Z,37.51
2023-07-19T04:09:04.427Z,36.91
2023-07-19T04:11:33.027Z,36.76
2023-07-19T04:14:01.677Z,35.95
2023-07-19T04:16:30.211Z,34.98
2023-07-19T04:18:58.815Z,34.15
2023-07-19T04:21:26.913Z,33.90
2023-07-19T04:23:59.481Z,33.53
2023-07-19T04:26:28.412Z,33.50
2023-07-19T04:28:57.778Z,33.88
2023-07-19T04:31:25.797Z,35.65
2023-07-19T04:33:53.766Z,37.10
2023-07-19T04:36:21.705Z,38.00
2023-07-19T04:38:49.881Z,37.86
2023-07-19T04:41:18.043Z,37.51
2023-07-19T04:43:46.619Z,37.24
2023-07-19T04:46:19.983Z,36.99
2023-07-19T04:48:49.045Z,36.54
2023-07-19T04:51:17.958Z,36.70
2023-07-19T04:53:46.569Z,37.33
2023-07-19T04:56:14.683Z,38.77
2023-07-19T04:58:42.943Z,38.86
2023-07-19T05:01:11.064Z,39.64
2023-07-19T05:03:38.980Z,39.02
2023-07-19T05:06:06.993Z,39.25
2023-07-19T05:08:35.514Z,38.80
2023-07-19T05:11:04.734Z,38.29
2023-07-19T05:13:33.281Z,36.30
2023-07-19T05:16:02.853Z,34.62
2023-07-19T05:18:31.184Z,33.45
2023-07-19T05:21:02.762Z,32.59
2023-07-19T05:23:30.899Z,34.64
2023-07-19T05:25:59.373Z,35.37
2023-07-19T05:28:29.463Z,35.21
2023-07-19T05:31:02.858Z,34.02
2023-07-19T05:33:34.392Z,32.42
2023-07-19T05:36:02.606Z,31.28
2023-07-19T05:38:31.520Z,30.52
2023-07-19T05:41:07.562Z,29.98
2023-07-19T05:43:35.735Z,29.82
2023-07-19T05:46:07.124Z,29.65
2023-07-19T05:48:36.328Z,29.22
2023-07-19T05:51:06.125Z,28.65
2023-07-19T05:53:35.152Z,28.75
2023-07-19T05:56:03.672Z,28.36
2023-07-19T05:58:31.864Z,28.37
2023-07-19T06:01:04.355Z,28.26
2023-07-19T06:03:32.611Z,28.04
2023-07-19T06:06:04.765Z,28.06
2023-07-19T06:08:34.321Z,27.92
2023-07-19T06:11:02.496Z,28.13
2023-07-19T06:13:31.387Z,28.64
2023-07-19T06:15:59.762Z,28.95
2023-07-19T06:18:27.780Z,29.28
2023-07-19T06:20:56.590Z,29.08
2023-07-19T06:23:25.086Z,31.00
2023-07-19T06:25:53.958Z,31.57
2023-07-19T06:28:22.216Z,30.95
2023-07-19T06:30:50.623Z,32.02
2023-07-19T06:33:18.583Z,33.35
2023-07-19T06:35:47.519Z,35.13
2023-07-19T06:38:15.606Z,37.18
2023-07-19T06:40:46.141Z,37.27
2023-07-19T06:43:14.383Z,36.84
2023-07-19T06:45:42.738Z,37.00
2023-07-19T06:48:11.445Z,36.07
2023-07-19T06:50:39.925Z,34.63
2023-07-19T06:53:08.372Z,34.59
2023-07-19T06:55:36.700Z,36.10
2023-07-19T06:58:05.021Z,37.75
2023-07-19T07:00:33.100Z,38.55
2023-07-19T07:03:01.383Z,39.81
2023-07-19T07:05:29.615Z,40.59
2023-07-19T07:07:58.071Z,40.46
2023-07-19T07:10:26.690Z,39.33
2023-07-19T07:13:20.069Z,38.59
2023-07-19T07:15:48.334Z,37.99
2023-07-19T07:18:16.434Z,38.30
2023-07-19T07:20:44.590Z,37.69
2023-07-19T07:23:12.823Z,35.64
2023-07-19T07:25:43.095Z,32.70
2023-07-19T07:28:11.223Z,31.17
2023-07-19T07:30:39.622Z,29.76
2023-07-19T07:33:08.619Z,28.68
2023-07-19T07:35:38.479Z,28.03
2023-07-19T07:38:06.106Z,27.63
2023-07-19T07:40:34.405Z,27.38
2023-07-19T07:43:02.729Z,27.33
2023-07-19T07:45:31.569Z,27.27
2023-07-19T07:48:00.569Z,27.21
2023-07-19T07:50:32.072Z,26.87
2023-07-19T07:53:12.393Z,26.68
2023-07-19T07:55:42.286Z,26.61
2023-07-19T07:58:11.924Z,26.78
2023-07-19T08:00:40.635Z,26.82
2023-07-19T08:03:10.770Z,26.79
2023-07-19T08:05:39.536Z,26.71
2023-07-19T08:08:07.937Z,26.74
2023-07-19T08:10:40.835Z,26.81
2023-07-19T08:13:12.903Z,26.87
2023-07-19T08:15:41.755Z,26.96
2023-07-19T08:18:09.811Z,26.98
2023-07-19T08:20:38.740Z,26.94
2023-07-19T08:23:06.978Z,27.09
2023-07-19T08:25:36.170Z,26.85
2023-07-19T08:28:03.966Z,26.92
2023-07-19T08:30:33.541Z,26.81
2023-07-19T08:33:03.915Z,26.83
2023-07-19T08:35:32.463Z,26.86
2023-07-19T08:38:00.628Z,26.80
2023-07-19T08:40:33.466Z,27.09
2023-07-19T08:43:08.555Z,27.26
2023-07-19T08:45:38.299Z,27.43
2023-07-19T08:48:09.519Z,27.61
2023-07-19T08:50:38.705Z,27.74
2023-07-19T08:53:07.907Z,27.91
2023-07-19T08:55:41.037Z,28.18
2023-07-19T08:58:08.969Z,28.19
2023-07-19T09:00:37.347Z,28.10
2023-07-19T09:03:06.266Z,27.83
2023-07-19T09:05:37.113Z,27.68
2023-07-19T09:08:06.192Z,27.45
2023-07-19T09:10:34.857Z,27.41
2023-07-19T09:13:07.740Z,27.53
2023-07-19T09:15:37.227Z,27.67
2023-07-19T09:18:06.894Z,27.62
2023-07-19T09:20:40.271Z,27.39
2023-07-19T09:23:08.845Z,27.34
2023-07-19T09:25:57.459Z,27.36
2023-07-19T09:28:26.220Z,27.28
2023-07-19T09:31:11.549Z,27.24
2023-07-19T09:33:49.899Z,27.24
2023-07-19T09:36:21.758Z,27.29
2023-07-19T09:38:50.228Z,27.49
2023-07-19T09:41:24.564Z,27.69
2023-07-19T09:43:53.079Z,27.66
2023-07-19T09:46:21.588Z,27.70
2023-07-19T09:48:50.181Z,27.78
2023-07-19T09:51:21.669Z,27.79
2023-07-19T09:53:53.799Z,27.84
2023-07-19T09:56:22.370Z,27.72
2023-07-19T09:58:51.350Z,27.68
2023-07-19T10:01:20.298Z,27.65
2023-07-19T10:03:49.266Z,27.78
2023-07-19T10:06:17.567Z,27.86
2023-07-19T10:08:47.211Z,27.82
2023-07-19T10:11:25.027Z,27.71
2023-07-19T10:14:08.656Z,27.79
2023-07-19T10:16:49.746Z,28.00
2023-07-19T10:19:22.340Z,28.11
2023-07-19T10:22:08.077Z,28.17
2023-07-19T10:24:37.844Z,28.33
2023-07-19T10:27:09.786Z,28.34
2023-07-19T10:29:47.258Z,28.32
2023-07-19T10:32:15.573Z,28.19
2023-07-19T10:34:46.419Z,28.38
2023-07-19T10:37:15.980Z,28.54
2023-07-19T10:39:44.565Z,28.66
2023-07-19T10:42:12.782Z,28.50
2023-07-19T10:44:42.218Z,27.97
2023-07-19T10:47:10.297Z,28.13
2023-07-19T10:49:39.019Z,28.17
2023-07-19T10:52:07.497Z,28.21
2023-07-19T10:54:50.367Z,28.52
2023-07-19T10:57:30.073Z,28.60
2023-07-19T10:59:58.642Z,28.34
2023-07-19T11:02:28.461Z,28.51
2023-07-19T11:04:57.276Z,28.99
2023-07-19T11:07:32.761Z,29.32
2023-07-19T11:10:02.406Z,29.45
2023-07-19T11:12:33.809Z,29.90
2023-07-19T11:15:02.832Z,30.43
2023-07-19T11:17:32.004Z,30.58
2023-07-19T11:20:01.476Z,30.99
2023-07-19T11:22:30.080Z,31.04
2023-07-19T11:24:58.339Z,30.84
2023-07-19T11:27:36.852Z,30.16
2023-07-19T11:30:05.706Z,29.87
2023-07-19T11:32:34.135Z,29.80
2023-07-19T11:35:03.107Z,29.66
2023-07-19T11:37:37.939Z,29.37
2023-07-19T11:40:07.205Z,29.66
2023-07-19T11:42:46.272Z,30.25
2023-07-19T11:45:20.111Z,30.25
2023-07-19T11:47:53.459Z,29.92
2023-07-19T11:50:22.695Z,29.61
2023-07-19T11:53:06.231Z,29.60
2023-07-19T11:55:34.502Z,29.50
2023-07-19T11:58:05.572Z,29.34
2023-07-19T12:00:35.050Z,29.40
2023-07-19T12:03:04.089Z,29.56
2023-07-19T12:05:33.562Z,29.71
2023-07-19T12:08:01.131Z,29.92
2023-07-19T12:10:29.953Z,30.02
2023-07-19T12:12:59.433Z,30.09
2023-07-19T12:15:29.615Z,30.20
2023-07-19T12:17:58.007Z,29.87
2023-07-19T12:20:29.024Z,29.55
2023-07-19T12:22:57.306Z,29.16
2023-07-19T12:25:31.677Z,28.85
2023-07-19T12:28:00.008Z,28.73
2023-07-19T12:30:29.184Z,28.69
2023-07-19T12:32:57.537Z,28.74
2023-07-19T12:35:27.446Z,28.68
2023-07-19T12:37:55.370Z,28.67
2023-07-19T12:40:23.620Z,28.59
2023-07-19T12:42:52.090Z,28.76
2023-07-19T12:45:21.155Z,29.13
2023-07-19T12:47:50.691Z,29.49
2023-07-19T12:50:19.034Z,29.92
2023-07-19T12:52:52.443Z,30.08
2023-07-19T12:55:21.680Z,30.29
2023-07-19T12:57:50.315Z,30.45
2023-07-19T13:00:19.598Z,30.32
2023-07-19T13:02:48.282Z,30.26
2023-07-19T13:05:16.779Z,30.14
2023-07-19T13:07:44.961Z,30.04
2023-07-19T13:10:16.419Z,30.06
2023-07-19T13:12:45.192Z,30.01
2023-07-19T13:15:14.510Z,30.09
2023-07-19T13:17:44.384Z,30.12
2023-07-19T13:20:12.947Z,30.25
2023-07-19T13:22:41.797Z,30.42
2023-07-19T13:25:10.250Z,30.37
2023-07-19T13:27:38.936Z,30.51
2023-07-19T13:30:09.141Z,30.78
2023-07-19T13:32:38.880Z,30.90
2023-07-19T13:35:13.186Z,30.92
2023-07-19T13:40:13.855Z,30.24
2023-07-19T13:42:43.415Z,29.91
2023-07-19T13:45:11.816Z,29.48
2023-07-19T13:47:43.033Z,29.14
2023-07-19T13:50:14.328Z,29.13
2023-07-19T13:52:43.505Z,29.03
2023-07-19T13:55:11.632Z,28.97
2023-07-19T13:57:40.265Z,28.88
2023-07-19T14:00:09.264Z,28.85
2023-07-19T14:02:39.297Z,28.90
2023-07-19T14:05:07.888Z,28.98
2023-07-19T14:07:36.470Z,28.90
2023-07-19T14:10:06.053Z,28.77
2023-07-19T14:12:36.028Z,28.58
2023-07-19T14:15:05.849Z,28.55
2023-07-19T14:17:36.306Z,28.43
2023-07-19T14:20:06.089Z,28.48
2023-07-19T14:22:34.422Z,28.51
2023-07-19T14:25:03.279Z,28.54
2023-07-19T14:27:31.710Z,28.53
2023-07-19T14:30:00.390Z,28.61
2023-07-19T14:32:31.509Z,28.63
2023-07-19T14:35:01.157Z,28.69
2023-07-19T14:37:31.027Z,28.67
2023-07-19T14:40:01.889Z,28.61
2023-07-19T14:42:30.208Z,28.57
2023-07-19T14:45:01.108Z,28.58
2023-07-19T14:47:29.253Z,28.64
2023-07-19T14:49:58.256Z,28.56
2023-07-19T14:52:26.274Z,28.50
2023-07-19T14:54:54.658Z,28.46
2023-07-19T14:57:22.672Z,28.38
2023-07-19T15:00:02.722Z,28.44
2023-07-19T15:02:41.053Z,28.36
2023-07-19T15:05:10.756Z,28.38
2023-07-19T15:07:44.811Z,28.40
2023-07-19T15:10:14.941Z,28.44
2023-07-19T15:12:44.593Z,28.49
2023-07-19T15:15:13.996Z,28.33
2023-07-19T15:17:42.984Z,28.35
2023-07-19T15:20:11.536Z,28.32
2023-07-19T15:22:39.920Z,28.29
2023-07-19T15:25:08.342Z,28.22
2023-07-19T15:27:37.647Z,28.23
2023-07-19T15:30:07.040Z,28.28
2023-07-19T15:32:35.196Z,28.25
2023-07-19T15:35:03.927Z,28.24
2023-07-19T15:37:32.697Z,28.15
2023-07-19T15:40:00.884Z,28.17
2023-07-19T15:42:31.618Z,28.06
2023-07-19T15:45:00.004Z,27.98
2023-07-19T15:47:29.208Z,27.96
2023-07-19T15:49:57.667Z,27.96
2023-07-19T15:52:28.245Z,27.93
2023-07-19T15:54:57.232Z,27.89
2023-07-19T15:57:27.119Z,27.88
2023-07-19T15:59:55.311Z,27.88
2023-07-19T16:02:23.660Z,27.79
2023-07-19T16:04:51.879Z,27.77
2023-07-19T16:07:20.056Z,27.74
2023-07-19T16:09:48.628Z,27.73
2023-07-19T16:12:16.637Z,27.69
2023-07-19T16:14:45.114Z,27.60
2023-07-19T16:17:13.643Z,27.58
2023-07-19T16:19:41.949Z,27.53
2023-07-19T16:22:10.347Z,27.48
2023-07-19T16:24:38.651Z,27.42
2023-07-19T16:27:07.240Z,27.34
2023-07-19T16:29:35.375Z,27.27
2023-07-19T16:32:03.640Z,27.15
2023-07-19T16:34:31.662Z,27.04
2023-07-19T16:36:59.887Z,26.96
2023-07-19T16:39:28.182Z,26.89
2023-07-19T16:42:00.517Z,26.82
2023-07-19T16:44:29.211Z,26.78
2023-07-19T16:46:59.401Z,26.71
2023-07-19T16:49:28.872Z,26.59
2023-07-19T16:51:57.400Z,26.55
2023-07-19T16:54:25.941Z,26.54
2023-07-19T16:56:54.620Z,26.48
2023-07-19T16:59:23.274Z,26.39
2023-07-19T17:01:53.505Z,26.30
2023-07-19T17:04:22.053Z,26.22
2023-07-19T17:06:59.671Z,26.13
2023-07-19T17:09:28.114Z,26.04
2023-07-19T17:11:56.753Z,25.95
2023-07-19T17:14:26.080Z,25.88
2023-07-19T17:17:06.716Z,25.75
2023-07-19T17:19:42.820Z,25.60
2023-07-19T17:22:11.468Z,25.43
2023-07-19T17:24:40.215Z,25.19
2023-07-19T17:27:08.369Z,24.94
2023-07-19T17:29:36.586Z,24.74
2023-07-19T17:32:04.979Z,24.54
2023-07-19T17:34:32.976Z,24.36
2023-07-19T17:37:01.194Z,24.19
2023-07-19T17:39:29.545Z,24.01
2023-07-19T17:42:00.516Z,23.88
2023-07-19T17:44:30.020Z,23.74
2023-07-19T17:46:59.469Z,23.60
2023-07-19T17:49:27.803Z,23.46
2023-07-19T17:51:56.091Z,23.31
2023-07-19T17:54:24.945Z,23.19
2023-07-19T17:56:53.306Z,23.06
2023-07-19T17:59:21.630Z,22.96
2023-07-19T18:01:51.475Z,22.86
2023-07-19T18:04:19.921Z,22.74
2023-07-19T18:06:48.183Z,22.65
2023-07-19T18:09:16.799Z,22.57
2023-07-19T18:11:47.770Z,22.48
2023-07-19T18:14:15.693Z,22.38
2023-07-19T18:16:43.923Z,22.31
2023-07-19T18:19:12.753Z,22.24
2023-07-19T18:21:47.728Z,22.14
2023-07-19T18:24:22.783Z,22.02
2023-07-19T18:26:51.177Z,21.92
2023-07-19T18:29:20.190Z,21.85
2023-07-19T18:31:48.740Z,21.78
2023-07-19T18:34:16.945Z,21.74
2023-07-19T18:36:44.736Z,21.74
2023-07-19T18:39:14.313Z,21.75
2023-07-19T18:41:42.845Z,21.76
2023-07-19T18:44:11.455Z,21.76
2023-07-19T18:46:39.872Z,21.73
2023-07-19T18:49:10.957Z,21.65
2023-07-19T18:51:39.934Z,21.58
2023-07-19T18:54:07.964Z,21.50
2023-07-19T18:56:37.348Z,21.47
2023-07-19T18:59:05.714Z,21.41
2023-07-19T19:01:35.016Z,21.32
2023-07-19T19:04:03.879Z,21.29
2023-07-19T19:06:32.128Z,21.25
2023-07-19T19:09:12.278Z,21.22
2023-07-19T19:11:40.548Z,21.20
2023-07-19T19:14:09.301Z,21.19
2023-07-19T19:16:38.679Z,21.20
2023-07-19T19:19:08.465Z,21.18
2023-07-19T19:21:37.055Z,21.17
2023-07-19T19:24:10.271Z,21.09
2023-07-19T19:26:41.164Z,21.03
2023-07-19T19:29:09.504Z,21.00
2023-07-19T19:31:38.013Z,20.96
2023-07-19T19:34:07.834Z,20.92
2023-07-19T19:36:37.555Z,20.85
2023-07-19T19:39:15.587Z,20.82
2023-07-19T19:41:54.918Z,20.83
2023-07-19T19:44:22.917Z,20.83
2023-07-19T19:46:51.186Z,20.86
2023-07-19T19:49:20.013Z,20.83
2023-07-19T19:51:50.095Z,20.83
2023-07-19T19:54:19.026Z,20.84
2023-07-19T19:56:50.293Z,20.83
2023-07-19T19:59:21.909Z,20.83
2023-07-19T20:02:36.422Z,20.80
2023-07-19T20:04:42.048Z,20.80
2023-07-19T20:07:10.213Z,20.72
2023-07-19T20:09:51.196Z,20.70
2023-07-19T20:12:24.447Z,20.65
2023-07-19T20:14:52.792Z,20.60
2023-07-19T20:17:20.537Z,20.58
2023-07-19T20:22:19.626Z,20.57
2023-07-19T20:24:53.482Z,20.57
2023-07-19T20:27:40.923Z,20.56
2023-07-19T20:30:10.752Z,20.56
2023-07-19T20:35:11.514Z,20.53
2023-07-19T20:37:42.997Z,20.50
2023-07-19T20:42:43.539Z,20.47
2023-07-19T20:45:13.572Z,20.45
2023-07-19T20:47:46.680Z,20.49
2023-07-19T20:50:18.153Z,20.44
2023-07-19T20:52:47.700Z,20.42
2023-07-19T20:55:16.426Z,20.42
2023-07-19T20:57:44.834Z,20.41
2023-07-19T21:00:13.536Z,20.38
2023-07-19T21:02:41.571Z,20.37
2023-07-19T21:05:09.975Z,20.33
2023-07-19T21:07:38.614Z,20.36
2023-07-19T21:10:07.649Z,20.34
2023-07-19T21:12:35.924Z,20.32
2023-07-19T21:15:05.111Z,20.31
2023-07-19T21:17:33.727Z,20.28
2023-07-19T21:20:02.115Z,20.25
2023-07-19T21:22:30.653Z,20.18
2023-07-19T21:27:30.145Z,20.10
2023-07-19T21:29:58.696Z,20.13
2023-07-19T21:32:30.324Z,20.15
2023-07-19T21:34:59.863Z,20.26
2023-07-19T21:37:27.961Z,20.38
2023-07-19T21:39:56.386Z,20.44
2023-07-19T21:42:24.716Z,20.52
2023-07-19T21:44:52.782Z,20.59
2023-07-19T21:47:20.490Z,20.65
2023-07-19T21:49:48.675Z,20.73
2023-07-19T21:52:16.979Z,20.74
2023-07-19T21:54:47.519Z,20.79
2023-07-19T21:57:15.333Z,20.84
2023-07-19T21:59:43.484Z,20.90
2023-07-19T22:02:11.947Z,20.98
2023-07-19T22:04:40.622Z,21.04
2023-07-19T22:07:09.163Z,21.17
2023-07-19T22:09:36.711Z,21.30
2023-07-19T22:12:04.969Z,21.41
2023-07-19T22:14:35.933Z,21.48
2023-07-19T22:17:04.434Z,21.45
2023-07-19T22:19:34.029Z,21.40
2023-07-19T22:22:02.440Z,21.38
2023-07-19T22:24:31.380Z,21.33
2023-07-19T22:26:59.737Z,21.26
2023-07-19T22:29:28.254Z,21.34
2023-07-19T22:31:56.146Z,21.41
2023-07-19T22:34:24.190Z,21.51
2023-07-19T22:36:52.311Z,21.55
2023-07-19T22:39:20.277Z,21.58
2023-07-19T22:41:49.689Z,21.63
2023-07-19T22:44:18.034Z,21.63
2023-07-19T22:46:48.273Z,21.66
2023-07-19T22:49:19.114Z,21.65
2023-07-19T22:51:47.332Z,21.67
2023-07-19T22:54:16.039Z,21.67
2023-07-19T22:56:44.254Z,21.67
2023-07-19T22:59:12.553Z,21.73
2023-07-19T23:01:41.030Z,21.74
2023-07-19T23:04:09.421Z,21.76
2023-07-19T23:06:37.895Z,21.75
2023-07-19T23:09:06.752Z,21.74
2023-07-19T23:11:39.588Z,21.77
2023-07-19T23:14:10.905Z,21.80
2023-07-19T23:16:40.050Z,21.79
2023-07-19T23:19:11.581Z,21.80
2023-07-19T23:21:40.249Z,21.81
2023-07-19T23:24:08.704Z,21.80
2023-07-19T23:26:37.834Z,21.79
2023-07-19T23:29:08.931Z,21.79
2023-07-19T23:31:40.199Z,21.81
2023-07-19T23:34:10.210Z,21.85
2023-07-19T23:36:40.423Z,21.89
2023-07-19T23:39:09.169Z,21.90
2023-07-19T23:41:37.896Z,21.96
2023-07-19T23:44:06.239Z,22.01
2023-07-19T23:46:34.522Z,22.06
2023-07-19T23:49:02.921Z,22.11
2023-07-19T23:51:34.490Z,22.19
2023-07-19T23:54:02.882Z,22.21
2023-07-19T23:56:32.596Z,22.22
2023-07-19T23:59:01.406Z,22.22
